Time;durP1;ratioP1;P1;durP2;ratioP2;P2;SDS_P1;SDS_P2;PMS_P1;PMS_P2;Temp;Humidity;BMP_temperature;BMP_pressure;BME280_temperature;BME280_humidity;BME280_pressure;Samples;Min_cycle;Max_cycle;Signal;HPM_P1;HPM_P2
2023/03/03 00:00:02;;;;;;;387.83;125.20;;;;;;;5.59;100.00;99888.03;290241;34;1225;-79
2023/03/03 00:00:13;;;;;;;380.30;123.60;;;;;;;5.59;100.00;99893.22;287831;33;2996;-79
2023/03/03 00:00:23;;;;;;;378.27;126.30;;;;;;;5.61;100.00;99896.66;285153;34;4524;-80
2023/03/03 00:00:34;;;;;;;372.90;125.33;;;;;;;5.57;100.00;99892.38;280647;34;3449;-79
2023/03/03 00:00:44;;;;;;;373.48;124.07;;;;;;;5.55;100.00;99896.75;270544;36;1955;-80
2023/03/03 00:00:55;;;;;;;369.80;120.23;;;;;;;5.47;100.00;99883.03;269580;35;7447;-81
2023/03/03 00:01:05;;;;;;;368.27;119.07;;;;;;;5.44;100.00;99893.47;268452;36;6314;-80
2023/03/03 00:01:16;;;;;;;368.37;120.77;;;;;;;5.40;100.00;99885.75;263906;37;3986;-80
2023/03/03 00:01:27;;;;;;;368.00;121.83;;;;;;;5.36;100.00;99887.53;264889;36;5533;-81
2023/03/03 00:01:37;;;;;;;369.83;122.20;;;;;;;5.33;100.00;99885.84;261516;37;5315;-80
2023/03/03 00:01:47;;;;;;;371.53;124.13;;;;;;;5.39;100.00;99894.41;260950;37;1352;-81
2023/03/03 00:01:58;;;;;;;371.90;122.97;;;;;;;5.38;100.00;99888.38;263743;37;5516;-80
2023/03/03 00:02:08;;;;;;;373.40;124.63;;;;;;;5.38;100.00;99884.91;260839;37;5133;-80
2023/03/03 00:02:19;;;;;;;373.80;124.05;;;;;;;5.38;100.00;99885.75;256130;38;3845;-81
2023/03/03 00:02:29;;;;;;;377.23;130.13;;;;;;;5.39;100.00;99887.47;250043;39;3472;-80
2023/03/03 00:04:17;;;;;;;356.97;108.53;;;;;;;5.54;100.00;99889.84;2447698;27;20591;-80
2023/03/03 00:04:27;;;;;;;364.83;111.47;;;;;;;5.56;100.00;99887.22;343655;28;3041;-80
2023/03/03 00:04:38;;;;;;;364.37;112.27;;;;;;;5.56;100.00;99882.88;342553;28;1191;-80
2023/03/03 00:04:49;;;;;;;363.20;115.57;;;;;;;5.56;100.00;99882.88;343412;28;2844;-81
2023/03/03 00:04:59;;;;;;;366.55;118.88;;;;;;;5.55;100.00;99886.38;343521;28;1320;-81
2023/03/03 00:05:14;;;;;;;371.93;121.17;;;;;;;5.59;100.00;99888.03;340639;28;3588;-80
2023/03/03 00:05:24;;;;;;;379.02;119.78;;;;;;;5.59;100.00;99888.03;343039;28;2483;-80
2023/03/03 00:05:35;;;;;;;381.70;119.83;;;;;;;5.61;100.00;99880.22;345395;28;2733;-80
2023/03/03 00:05:45;;;;;;;378.23;120.57;;;;;;;5.60;100.00;99875.91;341299;28;4268;-81
2023/03/03 00:05:56;;;;;;;375.05;119.47;;;;;;;5.61;100.00;99886.28;343437;28;2843;-80
2023/03/03 00:06:08;;;;;;;372.33;117.93;;;;;;;5.63;100.00;99879.28;342091;28;1485;-81
2023/03/03 00:06:19;;;;;;;373.77;120.03;;;;;;;5.64;100.00;99881.00;344388;28;2669;-82
2023/03/03 00:06:29;;;;;;;373.50;123.25;;;;;;;5.62;100.00;99887.13;341728;28;2079;-81
2023/03/03 00:06:41;;;;;;;373.20;123.17;;;;;;;5.64;100.00;99886.19;342803;28;2427;-81
2023/03/03 00:06:52;;;;;;;372.95;122.18;;;;;;;5.61;100.00;99878.47;341629;28;3666;-82
2023/03/03 00:07:02;;;;;;;376.33;123.10;;;;;;;5.60;100.00;99879.38;340956;29;873;-81
2023/03/03 00:07:20;;;;;;;379.35;122.05;;;;;;;5.62;100.00;99877.59;341771;28;2722;-81
2023/03/03 00:07:30;;;;;;;373.13;117.47;;;;;;;5.65;100.00;99881.84;341261;28;2536;-82
2023/03/03 00:07:44;;;;;;;373.53;118.10;;;;;;;5.66;100.00;99879.22;343450;28;855;-81
2023/03/03 00:07:54;;;;;;;380.23;119.88;;;;;;;5.68;100.00;99877.47;341244;28;2986;-81
2023/03/03 00:08:05;;;;;;;384.00;123.43;;;;;;;5.69;100.00;99881.78;344726;28;1205;-81
2023/03/03 00:08:15;;;;;;;380.10;122.60;;;;;;;5.71;100.00;99878.31;343357;28;2732;-81
2023/03/03 00:08:26;;;;;;;383.10;122.10;;;;;;;5.69;100.00;99884.38;344610;28;1306;-81
2023/03/03 00:08:37;;;;;;;380.67;122.10;;;;;;;5.72;100.00;99877.41;343189;28;2852;-81
2023/03/03 00:08:47;;;;;;;375.63;119.22;;;;;;;5.72;100.00;99883.47;342201;28;1224;-82
2023/03/03 00:08:57;;;;;;;370.00;116.50;;;;;;;5.71;100.00;99880.91;341292;28;3591;-81
2023/03/03 00:09:08;;;;;;;370.70;115.40;;;;;;;5.74;100.00;99875.66;344902;28;1209;-79
2023/03/03 00:09:18;;;;;;;373.77;120.17;;;;;;;5.76;100.00;99881.69;344098;28;3969;-82
2023/03/03 00:09:29;;;;;;;376.10;120.83;;;;;;;5.75;100.00;99878.22;340827;28;1879;-80
2023/03/03 00:09:39;;;;;;;372.37;121.70;;;;;;;5.78;100.00;99878.19;344649;28;2815;-80
2023/03/03 00:09:49;;;;;;;370.23;118.78;;;;;;;5.74;100.00;99876.50;342425;28;2133;-80
2023/03/03 00:10:00;;;;;;;371.73;119.90;;;;;;;5.68;100.00;99872.28;341106;28;3395;-81
2023/03/03 00:10:11;;;;;;;373.90;117.28;;;;;;;5.67;100.00;99875.75;340145;28;1089;-81
2023/03/03 00:10:21;;;;;;;374.90;118.03;;;;;;;5.65;100.00;99877.50;338573;29;2903;-80
2023/03/03 00:10:32;;;;;;;371.87;114.80;;;;;;;5.67;100.00;99873.16;340723;29;3023;-80
2023/03/03 00:10:43;;;;;;;370.05;112.95;;;;;;;5.64;100.00;99873.22;339520;29;3153;-81
2023/03/03 00:10:54;;;;;;;363.85;108.65;;;;;;;5.65;100.00;99871.47;339355;29;2843;-81
2023/03/03 00:11:06;;;;;;;368.43;110.73;;;;;;;5.69;100.00;99878.31;339679;29;3257;-81
2023/03/03 00:11:18;;;;;;;366.44;110.00;;;;;;;5.66;100.00;99874.03;339564;29;2152;-82
2023/03/03 00:11:31;;;;;;;365.63;108.60;;;;;;;5.71;100.00;99875.69;338316;29;1310;-82
2023/03/03 00:11:41;;;;;;;361.72;108.28;;;;;;;5.69;100.00;99868.78;335145;29;3476;-81
2023/03/03 00:11:55;;;;;;;362.03;111.07;;;;;;;5.74;100.00;99875.66;336901;29;2920;-80
2023/03/03 00:12:26;;;;;;;365.70;116.18;;;;;;;5.76;100.00;99871.28;339603;28;2910;-80
2023/03/03 00:12:36;;;;;;;357.17;109.00;;;;;;;5.77;100.00;99870.41;335654;29;1898;-80
2023/03/03 00:12:47;;;;;;;358.90;110.83;;;;;;;5.79;100.00;99873.84;337872;29;2837;-81
2023/03/03 00:12:59;;;;;;;362.15;111.57;;;;;;;5.75;100.00;99864.38;334349;29;2710;-81
2023/03/03 00:13:18;;;;;;;367.67;114.18;;;;;;;5.76;100.00;99868.69;331708;29;1844;-80
2023/03/03 00:13:29;;;;;;;371.67;114.07;;;;;;;5.75;100.00;99869.56;332986;29;2949;-80
2023/03/03 00:13:50;;;;;;;371.52;115.28;;;;;;;5.69;100.00;99874.00;332268;29;3808;-80
2023/03/03 00:14:01;;;;;;;363.50;111.10;;;;;;;5.66;100.00;99868.84;331863;29;2904;-79
2023/03/03 00:14:22;;;;;;;365.27;110.73;;;;;;;5.64;100.00;99869.75;326491;29;1580;-79
2023/03/03 00:14:32;;;;;;;365.35;114.07;;;;;;;5.65;100.00;99861.09;324491;30;1333;-80
2023/03/03 00:14:42;;;;;;;362.95;114.22;;;;;;;5.63;100.00;99873.25;323969;29;2875;-80
2023/03/03 00:14:53;;;;;;;362.13;112.40;;;;;;;5.64;100.00;99868.00;321775;30;1670;-80
2023/03/03 00:15:14;;;;;;;363.23;111.57;;;;;;;5.64;100.00;99864.56;320853;30;4218;-79
2023/03/03 00:15:25;;;;;;;363.00;112.80;;;;;;;5.64;100.00;99860.22;317698;30;3156;-80
2023/03/03 00:15:35;;;;;;;366.05;115.85;;;;;;;5.65;100.00;99861.09;311900;31;1245;-80
2023/03/03 00:15:46;;;;;;;366.60;115.93;;;;;;;5.62;100.00;99864.63;316960;30;4016;-79
2023/03/03 00:16:14;;;;;;;362.33;113.60;;;;;;;5.59;100.00;99866.41;319694;30;2930;-80
2023/03/03 00:16:36;;;;;;;362.02;105.93;;;;;;;5.56;100.00;99856.94;315586;31;2185;-80
2023/03/03 00:16:48;;;;;;;354.60;108.32;;;;;;;5.55;100.00;99857.81;310091;31;1366;-80
2023/03/03 00:17:00;;;;;;;358.20;109.25;;;;;;;5.52;100.00;99860.47;307854;31;2974;-80
2023/03/03 00:17:18;;;;;;;361.85;111.85;;;;;;;5.45;100.00;99855.38;306916;31;2745;-79
2023/03/03 00:17:29;;;;;;;364.98;112.20;;;;;;;5.42;100.00;99858.03;309010;31;4142;-79
2023/03/03 00:17:40;;;;;;;363.10;112.07;;;;;;;5.39;100.00;99856.34;306815;32;2856;-79
2023/03/03 00:17:50;;;;;;;364.43;114.07;;;;;;;5.38;100.00;99854.63;305587;32;3070;-79
2023/03/03 00:18:02;;;;;;;366.43;117.07;;;;;;;5.40;100.00;99855.47;305880;32;2888;-79
2023/03/03 00:18:18;;;;;;;364.55;115.68;;;;;;;5.42;100.00;99863.22;300530;32;2995;-79
2023/03/03 00:18:34;;;;;;;368.52;115.38;;;;;;;5.43;100.00;99854.56;304871;31;2611;-80
2023/03/03 00:18:45;;;;;;;369.30;116.43;;;;;;;5.42;100.00;99858.88;298751;32;2839;-80
2023/03/03 00:18:56;;;;;;;368.55;119.93;;;;;;;5.40;100.00;99852.00;295831;32;3953;-78
2023/03/03 00:19:13;;;;;;;368.48;120.15;;;;;;;5.41;100.00;99858.91;298174;32;3089;-79
2023/03/03 00:19:24;;;;;;;369.10;116.55;;;;;;;5.38;100.00;99849.44;300880;32;5155;-79
2023/03/03 00:19:37;;;;;;;369.75;116.80;;;;;;;5.37;100.00;99855.50;301158;32;4458;-78
2023/03/03 00:19:48;;;;;;;369.00;118.78;;;;;;;5.33;100.00;99852.09;296981;33;3141;-78
2023/03/03 00:19:58;;;;;;;371.33;119.13;;;;;;;5.33;100.00;99859.03;294238;33;4496;-80
2023/03/03 00:20:24;;;;;;;368.13;120.93;;;;;;;5.40;100.00;99852.88;294751;33;2333;-82
2023/03/03 00:20:38;;;;;;;365.17;116.22;;;;;;;5.43;100.00;99850.22;293960;33;2358;-79
2023/03/03 00:20:53;;;;;;;367.10;117.50;;;;;;;5.49;100.00;99854.47;287352;34;4048;-81
2023/03/03 00:21:18;;;;;;;369.40;117.22;;;;;;;5.50;100.00;99851.84;285888;34;3048;-80
2023/03/03 00:21:42;;;;;;;368.55;117.43;;;;;;;5.55;100.00;99854.34;290677;33;4262;-81
2023/03/03 00:21:53;;;;;;;364.20;109.94;;;;;;;5.57;100.00;99856.03;283033;34;3879;-80
2023/03/03 00:22:06;;;;;;;364.37;113.20;;;;;;;5.59;100.00;99848.22;278309;35;2771;-80
2023/03/03 00:22:37;;;;;;;367.98;116.97;;;;;;;5.62;100.00;99851.63;273738;35;3258;-81
2023/03/03 00:22:49;;;;;;;376.00;120.28;;;;;;;5.60;100.00;99849.94;275128;36;1339;-80
2023/03/03 00:23:17;;;;;;;374.38;119.93;;;;;;;5.60;100.00;99852.53;270978;35;4877;-81
2023/03/03 00:23:29;;;;;;;369.33;116.75;;;;;;;5.60;100.00;99852.53;267894;36;6137;-80
2023/03/03 00:23:42;;;;;;;368.98;120.14;;;;;;;5.60;100.00;99852.53;264030;37;5816;-80
2023/03/03 00:23:53;;;;;;;371.73;121.38;;;;;;;5.59;100.00;99850.84;263357;37;4971;-80
2023/03/03 00:24:04;;;;;;;370.42;117.82;;;;;;;5.59;100.00;99851.69;264550;37;3050;-80
2023/03/03 00:24:18;;;;;;;370.13;116.77;;;;;;;5.58;100.00;99849.97;264894;37;6000;-80
2023/03/03 00:24:36;;;;;;;369.33;118.47;;;;;;;5.58;100.00;99849.97;261588;37;4252;-81
2023/03/03 00:24:48;;;;;;;374.75;123.95;;;;;;;5.61;100.00;99849.94;255205;38;5443;-81
2023/03/03 00:26:42;;;;;;;355.86;108.40;;;;;;;5.65;100.00;99848.09;2474748;27;20266;-80
2023/03/03 00:26:57;;;;;;;365.75;116.97;;;;;;;5.66;100.00;99842.03;349124;28;2856;-80
2023/03/03 00:27:26;;;;;;;363.83;116.07;;;;;;;5.68;100.00;99843.72;344887;28;2342;-80
2023/03/03 00:27:37;;;;;;;366.73;112.43;;;;;;;5.71;100.00;99842.81;345628;28;2159;-80
2023/03/03 00:27:47;;;;;;;365.30;112.03;;;;;;;5.71;100.00;99837.63;344994;28;3197;-80
2023/03/03 00:28:06;;;;;;;366.45;113.88;;;;;;;5.73;100.00;99837.59;345400;28;2973;-79
2023/03/03 00:28:23;;;;;;;365.90;112.80;;;;;;;5.74;100.00;99834.97;343855;28;3883;-79
2023/03/03 00:29:00;;;;;;;363.80;113.85;;;;;;;5.77;100.00;99839.25;345059;28;2570;-80
2023/03/03 00:29:50;;;;;;;362.48;111.43;;;;;;;5.72;100.00;99833.28;340485;28;1607;-80
2023/03/03 00:30:00;;;;;;;359.45;110.05;;;;;;;5.68;100.00;99840.25;343470;28;2697;-80
2023/03/03 00:30:23;;;;;;;361.23;111.55;;;;;;;5.67;100.00;99834.22;344913;28;3469;-80
2023/03/03 00:30:33;;;;;;;359.83;108.47;;;;;;;5.64;100.00;99834.25;344131;28;1097;-79
2023/03/03 00:30:43;;;;;;;366.77;112.38;;;;;;;5.65;100.00;99835.13;345041;28;3026;-79
2023/03/03 00:30:55;;;;;;;372.97;115.13;;;;;;;5.63;100.00;99834.31;347675;28;899;-79
2023/03/03 00:31:17;;;;;;;376.77;117.80;;;;;;;5.68;100.00;99845.44;343195;28;2856;-79
2023/03/03 00:31:33;;;;;;;367.48;112.35;;;;;;;5.66;100.00;99832.50;338559;29;2653;-79
2023/03/03 00:31:44;;;;;;;368.35;108.53;;;;;;;5.67;100.00;99831.63;342578;28;2695;-83
2023/03/03 00:31:54;;;;;;;370.17;111.17;;;;;;;5.69;100.00;99827.25;347568;28;2853;-80
2023/03/03 00:32:13;;;;;;;373.67;114.78;;;;;;;5.71;100.00;99836.75;342776;28;2269;-79
2023/03/03 00:32:36;;;;;;;366.58;113.07;;;;;;;5.68;100.00;99829.88;340025;28;2143;-80
2023/03/03 00:32:49;;;;;;;360.30;110.35;;;;;;;5.64;100.00;99836.84;335697;29;3942;-80
2023/03/03 00:32:59;;;;;;;360.90;111.93;;;;;;;5.58;100.00;99837.00;339391;29;5329;-80
2023/03/03 00:33:27;;;;;;;365.08;116.45;;;;;;;5.54;100.00;99832.72;337113;29;1417;-80
2023/03/03 00:33:59;;;;;;;367.52;110.03;;;;;;;5.55;100.00;99834.44;334089;29;1112;-80
2023/03/03 00:34:26;;;;;;;363.23;111.63;;;;;;;5.63;100.00;99824.75;336059;29;2958;-81
2023/03/03 00:34:37;;;;;;;364.27;116.40;;;;;;;5.63;100.00;99823.94;337266;29;1490;-80
2023/03/03 00:34:48;;;;;;;365.50;116.56;;;;;;;5.65;100.00;99828.19;334248;29;2766;-80
2023/03/03 00:35:38;;;;;;;366.20;114.83;;;;;;;5.68;100.00;99830.72;340623;29;1735;-80
2023/03/03 00:35:48;;;;;;;368.02;110.55;;;;;;;5.71;100.00;99829.81;330908;29;4036;-81
2023/03/03 00:36:37;;;;;;;368.43;112.37;;;;;;;5.71;100.00;99828.97;332799;29;3040;-82
2023/03/03 00:36:48;;;;;;;362.35;109.72;;;;;;;5.63;100.00;99819.56;325201;29;3001;-80
2023/03/03 00:36:59;;;;;;;362.38;111.20;;;;;;;5.61;100.00;99829.16;322986;30;2961;-80
2023/03/03 00:37:26;;;;;;;362.45;113.82;;;;;;;5.60;100.00;99832.63;319280;30;2323;-81
2023/03/03 00:37:38;;;;;;;356.42;110.20;;;;;;;5.62;100.00;99828.28;318321;30;3213;-80
2023/03/03 00:37:52;;;;;;;359.33;109.75;;;;;;;5.63;100.00;99836.91;317844;30;1575;-81
2023/03/03 00:38:11;;;;;;;364.44;112.84;;;;;;;5.65;100.00;99824.72;313321;31;4360;-80
2023/03/03 00:38:22;;;;;;;366.00;114.75;;;;;;;5.67;100.00;99823.81;316883;30;2933;-80
2023/03/03 00:38:33;;;;;;;366.50;112.17;;;;;;;5.68;100.00;99825.53;319368;30;1595;-80
2023/03/03 00:38:43;;;;;;;367.17;112.43;;;;;;;5.69;100.00;99829.84;314247;31;2780;-80
2023/03/03 00:38:54;;;;;;;365.13;114.20;;;;;;;5.69;100.00;99827.25;316280;30;1976;-80
2023/03/03 00:39:18;;;;;;;366.38;115.43;;;;;;;5.73;100.00;99817.66;316038;30;2741;-80
2023/03/03 00:39:38;;;;;;;362.40;111.68;;;;;;;5.75;100.00;99828.03;315247;31;3427;-80
2023/03/03 00:39:48;;;;;;;364.25;111.80;;;;;;;5.76;100.00;99822.81;310426;31;3326;-81
2023/03/03 00:40:22;;;;;;;366.47;110.70;;;;;;;5.78;100.00;99830.56;310712;31;1307;-80
2023/03/03 00:40:35;;;;;;;366.75;111.88;;;;;;;5.80;100.00;99823.63;306152;31;2850;-79
2023/03/03 00:40:46;;;;;;;367.48;112.88;;;;;;;5.79;100.00;99821.91;305892;31;2199;-79
2023/03/03 00:40:56;;;;;;;366.20;111.05;;;;;;;5.79;100.00;99827.94;302205;32;2943;-78
2023/03/03 00:41:20;;;;;;;369.47;112.47;;;;;;;5.80;100.00;99823.63;304115;32;2940;-79
2023/03/03 00:41:30;;;;;;;372.42;115.82;;;;;;;5.78;100.00;99820.19;299473;32;3968;-79
2023/03/03 00:41:41;;;;;;;372.70;115.63;;;;;;;5.79;100.00;99821.91;301951;32;1197;-80
2023/03/03 00:41:51;;;;;;;370.60;113.88;;;;;;;5.79;100.00;99821.91;297399;33;3304;-80
2023/03/03 00:42:12;;;;;;;360.58;111.95;;;;;;;5.79;100.00;99822.75;296316;33;3448;-80
2023/03/03 00:42:23;;;;;;;362.23;111.65;;;;;;;5.79;100.00;99821.91;298139;33;5400;-80
2023/03/03 00:42:35;;;;;;;369.65;113.32;;;;;;;5.77;100.00;99823.66;300216;32;3717;-79
2023/03/03 00:42:50;;;;;;;370.95;114.32;;;;;;;5.71;100.00;99818.59;298244;32;3010;-80
2023/03/03 00:43:01;;;;;;;365.10;115.72;;;;;;;5.65;100.00;99820.41;292188;33;3397;-80
2023/03/03 00:43:35;;;;;;;362.73;113.07;;;;;;;5.64;100.00;99815.22;294814;33;1384;-80
2023/03/03 00:43:45;;;;;;;369.25;112.55;;;;;;;5.64;100.00;99818.69;293852;33;4270;-79
2023/03/03 00:43:56;;;;;;;370.00;114.37;;;;;;;5.64;100.00;99813.50;291936;33;1225;-80
2023/03/03 00:44:44;;;;;;;372.15;114.85;;;;;;;5.70;100.00;99817.72;288334;33;4411;-80
2023/03/03 00:44:57;;;;;;;360.17;105.65;;;;;;;5.71;100.00;99819.44;289019;34;2983;-80
2023/03/03 00:45:35;;;;;;;362.42;108.75;;;;;;;5.73;100.00;99814.22;289235;33;4318;-81
2023/03/03 00:45:53;;;;;;;357.13;106.22;;;;;;;5.69;100.00;99813.41;282686;33;7286;-80
2023/03/03 00:46:03;;;;;;;355.25;107.22;;;;;;;5.72;100.00;99815.09;285115;33;6634;-80
2023/03/03 00:46:18;;;;;;;359.20;108.97;;;;;;;5.71;100.00;99810.78;285524;34;2937;-80
2023/03/03 00:46:28;;;;;;;362.75;111.20;;;;;;;5.72;100.00;99817.69;283665;34;2130;-81
2023/03/03 00:46:39;;;;;;;363.47;110.67;;;;;;;5.73;100.00;99814.22;282519;34;5250;-80
2023/03/03 00:46:49;;;;;;;361.30;113.85;;;;;;;5.75;100.00;99815.03;281986;34;4547;-81
2023/03/03 00:47:37;;;;;;;364.20;115.53;;;;;;;5.76;100.00;99814.16;279533;34;4557;-80
2023/03/03 00:49:25;;;;;;;354.26;103.63;;;;;;;5.82;100.00;99811.47;2503927;27;20740;-79
2023/03/03 00:49:35;;;;;;;369.63;112.78;;;;;;;5.80;100.00;99810.63;353081;28;1317;-80
2023/03/03 00:49:46;;;;;;;374.45;113.30;;;;;;;5.80;100.00;99808.88;349146;28;1394;-80
2023/03/03 00:50:05;;;;;;;371.30;113.80;;;;;;;5.78;100.00;99804.59;347711;28;1341;-80
2023/03/03 00:50:35;;;;;;;364.48;109.65;;;;;;;5.78;100.00;99808.06;347643;28;1007;-80
2023/03/03 00:50:46;;;;;;;362.75;110.20;;;;;;;5.78;100.00;99805.47;348401;28;1324;-81
2023/03/03 00:51:00;;;;;;;362.45;109.07;;;;;;;5.79;100.00;99806.31;347535;28;1347;-80
2023/03/03 00:51:26;;;;;;;359.48;106.70;;;;;;;5.78;100.00;99804.59;346673;28;1307;-80
2023/03/03 00:51:36;;;;;;;359.13;110.80;;;;;;;5.78;100.00;99805.47;343452;28;932;-80
2023/03/03 00:51:47;;;;;;;359.53;110.73;;;;;;;5.78;100.00;99815.00;344218;28;1285;-80
2023/03/03 00:51:57;;;;;;;361.63;111.85;;;;;;;5.76;100.00;99806.38;344983;28;1243;-80
2023/03/03 00:52:13;;;;;;;360.63;110.53;;;;;;;5.75;100.00;99802.91;344729;28;1318;-80
2023/03/03 00:52:24;;;;;;;361.90;110.45;;;;;;;5.74;100.00;99803.81;344405;28;2103;-81
2023/03/03 00:52:45;;;;;;;362.58;110.50;;;;;;;5.77;100.00;99808.09;344267;28;3200;-79
2023/03/03 00:53:03;;;;;;;363.05;112.65;;;;;;;5.79;100.00;99803.72;347035;28;852;-80
2023/03/03 00:53:17;;;;;;;361.63;112.38;;;;;;;5.77;100.00;99797.69;344727;28;1578;-80
2023/03/03 00:53:29;;;;;;;360.35;112.90;;;;;;;5.76;100.00;99803.78;346224;28;3772;-79
2023/03/03 00:53:39;;;;;;;360.35;111.60;;;;;;;5.76;100.00;99808.97;347271;28;3511;-81
2023/03/03 00:53:50;;;;;;;362.97;109.97;;;;;;;5.75;100.00;99799.47;347668;28;1302;-81
2023/03/03 00:54:01;;;;;;;365.42;109.70;;;;;;;5.74;100.00;99803.81;347552;28;1456;-80
2023/03/03 00:54:11;;;;;;;362.58;108.65;;;;;;;5.73;100.00;99799.50;347737;28;3305;-80
2023/03/03 00:54:21;;;;;;;360.57;110.23;;;;;;;5.75;100.00;99799.47;346037;28;2145;-80
2023/03/03 00:54:32;;;;;;;364.90;111.88;;;;;;;5.76;100.00;99799.44;345534;28;1994;-83
2023/03/03 00:54:42;;;;;;;367.77;113.10;;;;;;;5.77;100.00;99797.69;345982;28;1802;-80
2023/03/03 00:54:53;;;;;;;366.77;112.50;;;;;;;5.76;100.00;99796.84;343552;28;1218;-79
2023/03/03 00:55:04;;;;;;;361.60;113.63;;;;;;;5.75;100.00;99805.50;345078;28;1179;-80
2023/03/03 00:55:14;;;;;;;363.23;111.78;;;;;;;5.75;100.00;99804.66;347092;28;1496;-80
2023/03/03 00:55:26;;;;;;;367.17;110.32;;;;;;;5.74;100.00;99798.59;343624;28;2935;-79
2023/03/03 00:55:36;;;;;;;367.70;109.78;;;;;;;5.75;100.00;99799.47;346095;28;3082;-79
2023/03/03 00:55:48;;;;;;;368.20;111.00;;;;;;;5.76;100.00;99801.19;345085;28;3623;-80
2023/03/03 00:55:58;;;;;;;365.45;112.03;;;;;;;5.75;100.00;99799.47;343296;28;1304;-81
2023/03/03 00:56:09;;;;;;;365.10;113.93;;;;;;;5.75;100.00;99799.47;339399;28;3960;-81
2023/03/03 00:56:19;;;;;;;368.85;115.43;;;;;;;5.74;100.00;99800.34;345376;28;1315;-80
2023/03/03 00:56:30;;;;;;;367.47;115.13;;;;;;;5.75;100.00;99799.47;345292;28;2948;-80
2023/03/03 00:56:40;;;;;;;364.17;112.03;;;;;;;5.78;100.00;99799.41;343524;28;1243;-80
2023/03/03 00:56:51;;;;;;;363.70;113.27;;;;;;;5.78;100.00;99797.66;339963;28;4821;-80
2023/03/03 00:57:01;;;;;;;367.00;115.40;;;;;;;5.79;100.00;99798.53;341472;28;3383;-80
2023/03/03 00:57:12;;;;;;;369.33;116.10;;;;;;;5.79;100.00;99796.78;342970;28;2647;-80
2023/03/03 00:57:22;;;;;;;367.38;111.13;;;;;;;5.79;100.00;99801.13;341000;29;1178;-81
2023/03/03 00:57:33;;;;;;;366.83;111.80;;;;;;;5.78;100.00;99799.41;339433;28;3572;-82
2023/03/03 00:57:43;;;;;;;366.60;112.90;;;;;;;5.77;100.00;99800.28;344835;28;1808;-80
2023/03/03 00:57:54;;;;;;;366.70;113.23;;;;;;;5.76;100.00;99801.19;342912;28;2890;-81
2023/03/03 00:58:04;;;;;;;363.92;112.85;;;;;;;5.77;100.00;99800.28;341099;28;1591;-81
2023/03/03 00:58:14;;;;;;;361.63;110.60;;;;;;;5.76;100.00;99796.84;341566;28;1915;-81
2023/03/03 00:58:26;;;;;;;360.17;109.50;;;;;;;5.77;100.00;99795.09;338283;29;1256;-81
2023/03/03 00:58:37;;;;;;;355.77;105.15;;;;;;;5.79;100.00;99801.13;338456;29;846;-79
2023/03/03 00:58:48;;;;;;;360.10;109.18;;;;;;;5.79;100.00;99795.94;338212;29;1254;-79
2023/03/03 00:58:59;;;;;;;362.08;110.88;;;;;;;5.76;100.00;99796.84;337939;29;1388;-80
2023/03/03 00:59:10;;;;;;;364.77;110.65;;;;;;;5.77;100.00;99798.56;336992;29;1215;-79
2023/03/03 00:59:20;;;;;;;363.45;109.22;;;;;;;5.78;100.00;99799.41;335581;29;1303;-80
2023/03/03 00:59:31;;;;;;;365.73;109.57;;;;;;;5.79;100.00;99795.94;332780;29;1598;-79
2023/03/03 00:59:41;;;;;;;365.30;109.15;;;;;;;5.79;100.00;99798.53;328513;30;1380;-79
2023/03/03 00:59:52;;;;;;;366.63;110.30;;;;;;;5.78;100.00;99802.00;323395;30;1301;-79
2023/03/03 01:00:03;;;;;;;366.10;111.25;;;;;;;5.78;100.00;99796.81;326140;30;2018;-80
2023/03/03 01:00:14;;;;;;;365.90;112.70;;;;;;;5.79;100.00;99798.53;324991;30;1751;-79
2023/03/03 01:00:24;;;;;;;364.35;113.65;;;;;;;5.77;100.00;99792.50;325282;30;1277;-79
2023/03/03 01:00:35;;;;;;;363.75;112.47;;;;;;;5.75;100.00;99789.09;321431;30;1286;-79
2023/03/03 01:00:50;;;;;;;366.27;110.60;;;;;;;5.72;100.00;99799.53;318400;30;869;-81
2023/03/03 01:01:01;;;;;;;364.92;111.53;;;;;;;5.69;100.00;99800.44;325776;30;1330;-79
2023/03/03 01:01:11;;;;;;;363.73;110.93;;;;;;;5.68;100.00;99791.78;324546;30;1405;-79
2023/03/03 01:01:24;;;;;;;367.52;112.80;;;;;;;5.67;100.00;99795.28;310817;31;1269;-79
2023/03/03 01:01:34;;;;;;;371.35;113.22;;;;;;;5.65;100.00;99798.78;320115;30;2803;-80
2023/03/03 01:01:45;;;;;;;373.43;117.70;;;;;;;5.65;100.00;99794.44;319851;30;2055;-79
2023/03/03 01:01:55;;;;;;;374.63;119.73;;;;;;;5.65;100.00;99799.63;317589;31;1399;-80
2023/03/03 01:02:05;;;;;;;378.90;122.97;;;;;;;5.63;100.00;99796.19;318646;30;1917;-80
2023/03/03 01:02:16;;;;;;;382.03;121.50;;;;;;;5.65;100.00;99796.19;319684;30;2262;-80
2023/03/03 01:02:26;;;;;;;378.83;120.55;;;;;;;5.64;100.00;99797.91;319858;30;880;-80
2023/03/03 01:02:36;;;;;;;373.20;119.67;;;;;;;5.61;100.00;99798.00;314198;31;1192;-79
2023/03/03 01:02:47;;;;;;;372.08;117.88;;;;;;;5.62;100.00;99794.53;316993;31;1222;-79
2023/03/03 01:03:01;;;;;;;371.77;114.33;;;;;;;5.65;100.00;99799.63;317296;31;1347;-79
2023/03/03 01:03:14;;;;;;;364.75;112.32;;;;;;;5.67;100.00;99792.66;316540;31;1306;-80
2023/03/03 01:03:24;;;;;;;364.42;112.35;;;;;;;5.68;100.00;99801.31;310772;31;1341;-80
2023/03/03 01:03:35;;;;;;;371.77;113.28;;;;;;;5.71;100.00;99797.81;313973;31;2065;-80
2023/03/03 01:03:45;;;;;;;373.77;112.60;;;;;;;5.70;100.00;99791.75;308404;31;3072;-80
2023/03/03 01:03:56;;;;;;;372.45;111.88;;;;;;;5.73;100.00;99790.84;305351;32;1318;-80
2023/03/03 01:04:06;;;;;;;367.60;109.90;;;;;;;5.76;100.00;99796.00;305896;31;3699;-80
2023/03/03 01:04:17;;;;;;;368.95;112.43;;;;;;;5.77;100.00;99798.56;303896;32;3708;-80
2023/03/03 01:04:27;;;;;;;369.53;113.57;;;;;;;5.79;100.00;99796.78;301741;32;2805;-80
2023/03/03 01:04:38;;;;;;;367.80;115.33;;;;;;;5.77;100.00;99797.69;301315;32;1205;-80
2023/03/03 01:04:49;;;;;;;366.00;113.43;;;;;;;5.82;100.00;99795.88;303911;32;2648;-80
2023/03/03 01:05:00;;;;;;;367.30;113.32;;;;;;;5.84;100.00;99799.31;305039;32;1393;-80
2023/03/03 01:05:12;;;;;;;364.98;112.78;;;;;;;5.84;100.00;99794.09;305384;32;1232;-80
2023/03/03 01:05:22;;;;;;;362.77;110.57;;;;;;;5.86;100.00;99800.13;301885;32;1300;-80
2023/03/03 01:05:33;;;;;;;362.77;111.50;;;;;;;5.87;100.00;99804.44;300540;32;2372;-80
2023/03/03 01:05:43;;;;;;;369.77;112.67;;;;;;;5.87;100.00;99804.44;298430;32;3335;-80
2023/03/03 01:05:54;;;;;;;370.10;113.35;;;;;;;5.88;100.00;99795.75;294143;33;1232;-80
2023/03/03 01:06:04;;;;;;;367.23;113.57;;;;;;;5.88;100.00;99795.75;294523;33;4729;-80
2023/03/03 01:06:15;;;;;;;360.20;111.50;;;;;;;5.86;100.00;99792.34;293109;33;5085;-80
2023/03/03 01:06:26;;;;;;;361.50;110.97;;;;;;;5.89;100.00;99792.31;292229;33;1297;-80
2023/03/03 01:06:37;;;;;;;360.45;110.30;;;;;;;5.90;100.00;99794.03;290643;34;926;-80
2023/03/03 01:06:48;;;;;;;366.73;110.97;;;;;;;5.91;100.00;99795.75;288776;34;3755;-80
2023/03/03 01:06:59;;;;;;;364.95;112.30;;;;;;;5.91;100.00;99790.53;286698;34;3221;-79
2023/03/03 01:07:09;;;;;;;367.27;112.30;;;;;;;5.90;100.00;99799.22;286539;34;869;-80
2023/03/03 01:07:19;;;;;;;368.80;111.95;;;;;;;5.91;100.00;99795.75;286249;34;2483;-80
2023/03/03 01:07:30;;;;;;;373.57;111.47;;;;;;;5.92;100.00;99794.84;284845;34;3068;-80
2023/03/03 01:07:40;;;;;;;377.02;111.20;;;;;;;5.90;100.00;99794.03;286539;34;909;-80
2023/03/03 01:07:51;;;;;;;372.23;112.47;;;;;;;5.90;100.00;99796.63;282296;34;3137;-79
2023/03/03 01:08:01;;;;;;;368.52;115.32;;;;;;;5.89;100.00;99794.91;278943;35;5145;-78
2023/03/03 01:08:12;;;;;;;368.67;116.30;;;;;;;5.90;100.00;99799.22;275734;35;6804;-78